sensor_id;sensor_type;location;lat;lon;timestamp;temperature;humidity
25102;DHT22;13087;51.472;5.464;2022-07-22T12:52:38;28.30;46.60
25102;DHT22;13087;51.472;5.464;2022-07-22T12:55:03;30.00;43.00
25102;DHT22;13087;51.472;5.464;2022-07-22T12:57:29;29.90;43.20
25102;DHT22;13087;51.472;5.464;2022-07-22T13:02:20;30.00;43.50
25102;DHT22;13087;51.472;5.464;2022-07-22T13:04:46;30.00;43.00
25102;DHT22;13087;51.472;5.464;2022-07-22T13:07:11;30.00;43.00
25102;DHT22;13087;51.472;5.464;2022-07-22T13:09:37;30.10;43.30
25102;DHT22;13087;51.472;5.464;2022-07-22T13:12:02;30.10;43.40
25102;DHT22;13087;51.472;5.464;2022-07-22T13:14:28;30.10;42.60
25102;DHT22;13087;51.472;5.464;2022-07-22T13:16:53;30.20;43.00
25102;DHT22;13087;51.472;5.464;2022-07-22T13:19:19;30.20;42.80
25102;DHT22;13087;51.472;5.464;2022-07-22T13:21:44;30.30;42.50
25102;DHT22;13087;51.472;5.464;2022-07-22T13:24:10;30.40;42.60
25102;DHT22;13087;51.472;5.464;2022-07-22T13:26:36;30.50;42.90
25102;DHT22;13087;51.472;5.464;2022-07-22T13:29:02;30.60;43.10
25102;DHT22;13087;51.472;5.464;2022-07-22T13:31:27;30.60;42.90
25102;DHT22;13087;51.472;5.464;2022-07-22T13:33:53;30.70;43.10
25102;DHT22;13087;51.472;5.464;2022-07-22T13:36:18;30.80;43.20
25102;DHT22;13087;51.472;5.464;2022-07-22T13:38:44;30.70;41.50
25102;DHT22;13087;51.472;5.464;2022-07-22T13:41:09;30.60;41.30
25102;DHT22;13087;51.472;5.464;2022-07-22T13:43:42;30.60;41.70
25102;DHT22;13087;51.472;5.464;2022-07-22T13:46:08;30.60;42.20
25102;DHT22;13087;51.472;5.464;2022-07-22T13:48:33;30.60;41.90
25102;DHT22;13087;51.472;5.464;2022-07-22T13:50:59;30.60;41.30
25102;DHT22;13087;51.472;5.464;2022-07-22T13:53:24;30.60;41.80
25102;DHT22;13087;51.472;5.464;2022-07-22T13:55:50;30.70;42.00
25102;DHT22;13087;51.472;5.464;2022-07-22T13:58:15;30.80;42.10
25102;DHT22;13087;51.472;5.464;2022-07-22T14:00:41;30.90;42.20
25102;DHT22;13087;51.472;5.464;2022-07-22T14:03:06;31.00;42.10
25102;DHT22;13087;51.472;5.464;2022-07-22T14:05:32;31.00;41.80
25102;DHT22;13087;51.472;5.464;2022-07-22T14:07:57;31.10;41.90
25102;DHT22;13087;51.472;5.464;2022-07-22T14:10:22;31.20;41.70
25102;DHT22;13087;51.472;5.464;2022-07-22T14:12:48;31.10;40.50
25102;DHT22;13087;51.472;5.464;2022-07-22T14:15:15;31.10;40.20
25102;DHT22;13087;51.472;5.464;2022-07-22T14:17:41;31.00;40.40
25102;DHT22;13087;51.472;5.464;2022-07-22T14:20:07;31.00;40.80
25102;DHT22;13087;51.472;5.464;2022-07-22T14:22:33;31.10;40.60
25102;DHT22;13087;51.472;5.464;2022-07-22T14:24:59;31.10;40.70
25102;DHT22;13087;51.472;5.464;2022-07-22T14:27:24;31.10;41.10
25102;DHT22;13087;51.472;5.464;2022-07-22T14:29:50;31.20;41.50
25102;DHT22;13087;51.472;5.464;2022-07-22T14:32:15;31.20;41.40
25102;DHT22;13087;51.472;5.464;2022-07-22T14:34:41;31.30;41.60
25102;DHT22;13087;51.472;5.464;2022-07-22T14:37:06;31.50;41.60
25102;DHT22;13087;51.472;5.464;2022-07-22T14:39:34;31.60;40.40
25102;DHT22;13087;51.472;5.464;2022-07-22T14:41:59;31.50;39.70
25102;DHT22;13087;51.472;5.464;2022-07-22T14:44:25;31.60;39.30
25102;DHT22;13087;51.472;5.464;2022-07-22T14:49:17;31.60;39.80
25102;DHT22;13087;51.472;5.464;2022-07-22T14:51:43;31.80;40.40
25102;DHT22;13087;51.472;5.464;2022-07-22T14:54:09;31.80;40.20
25102;DHT22;13087;51.472;5.464;2022-07-22T14:56:39;31.80;40.20
25102;DHT22;13087;51.472;5.464;2022-07-22T14:59:05;31.80;40.30
25102;DHT22;13087;51.472;5.464;2022-07-22T15:01:31;31.80;40.50
25102;DHT22;13087;51.472;5.464;2022-07-22T15:03:56;31.80;40.40
25102;DHT22;13087;51.472;5.464;2022-07-22T15:06:21;31.70;40.40
25102;DHT22;13087;51.472;5.464;2022-07-22T15:08:47;31.70;40.30
25102;DHT22;13087;51.472;5.464;2022-07-22T15:11:13;31.70;40.60
25102;DHT22;13087;51.472;5.464;2022-07-22T15:13:38;31.70;40.50
25102;DHT22;13087;51.472;5.464;2022-07-22T15:16:04;31.80;41.20
25102;DHT22;13087;51.472;5.464;2022-07-22T15:18:29;31.80;41.10
25102;DHT22;13087;51.472;5.464;2022-07-22T15:20:55;31.70;40.60
25102;DHT22;13087;51.472;5.464;2022-07-22T15:23:22;31.60;40.60
25102;DHT22;13087;51.472;5.464;2022-07-22T15:25:49;31.50;40.60
25102;DHT22;13087;51.472;5.464;2022-07-22T15:28:15;31.50;40.60
25102;DHT22;13087;51.472;5.464;2022-07-22T15:30:40;31.50;40.90
25102;DHT22;13087;51.472;5.464;2022-07-22T15:33:06;31.40;40.80
25102;DHT22;13087;51.472;5.464;2022-07-22T15:35:31;31.30;40.70
25102;DHT22;13087;51.472;5.464;2022-07-22T15:37:57;31.30;40.80
25102;DHT22;13087;51.472;5.464;2022-07-22T15:40:22;31.30;41.00
25102;DHT22;13087;51.472;5.464;2022-07-22T15:42:49;31.20;41.20
25102;DHT22;13087;51.472;5.464;2022-07-22T15:45:15;31.20;41.20
25102;DHT22;13087;51.472;5.464;2022-07-22T15:47:40;31.20;41.40
25102;DHT22;13087;51.472;5.464;2022-07-22T15:50:06;31.20;41.50
25102;DHT22;13087;51.472;5.464;2022-07-22T15:52:31;31.20;41.50
25102;DHT22;13087;51.472;5.464;2022-07-22T15:54:57;31.20;41.50
25102;DHT22;13087;51.472;5.464;2022-07-22T15:57:22;31.20;41.60
25102;DHT22;13087;51.472;5.464;2022-07-22T16:00:07;31.10;41.60
25102;DHT22;13087;51.472;5.464;2022-07-22T16:02:33;31.10;41.30
25102;DHT22;13087;51.472;5.464;2022-07-22T16:04:58;31.00;41.40
25102;DHT22;13087;51.472;5.464;2022-07-22T16:07:24;31.00;41.50
25102;DHT22;13087;51.472;5.464;2022-07-22T16:09:49;30.90;41.50
25102;DHT22;13087;51.472;5.464;2022-07-22T16:12:15;30.90;41.70
25102;DHT22;13087;51.472;5.464;2022-07-22T16:14:40;30.80;41.80
25102;DHT22;13087;51.472;5.464;2022-07-22T16:17:05;30.80;41.80
25102;DHT22;13087;51.472;5.464;2022-07-22T16:19:31;30.80;41.80
25102;DHT22;13087;51.472;5.464;2022-07-22T16:21:56;30.80;41.90
25102;DHT22;13087;51.472;5.464;2022-07-22T16:24:22;30.80;42.00
25102;DHT22;13087;51.472;5.464;2022-07-22T16:26:47;30.80;42.00
25102;DHT22;13087;51.472;5.464;2022-07-22T16:29:13;30.70;41.90
25102;DHT22;13087;51.472;5.464;2022-07-22T16:31:38;30.70;41.80
25102;DHT22;13087;51.472;5.464;2022-07-22T16:34:03;30.60;41.80
25102;DHT22;13087;51.472;5.464;2022-07-22T16:36:29;30.50;41.90
25102;DHT22;13087;51.472;5.464;2022-07-22T16:38:54;30.50;41.90
25102;DHT22;13087;51.472;5.464;2022-07-22T16:41:20;30.40;42.00
25102;DHT22;13087;51.472;5.464;2022-07-22T16:43:45;30.40;42.20
25102;DHT22;13087;51.472;5.464;2022-07-22T16:46:11;30.30;42.10
25102;DHT22;13087;51.472;5.464;2022-07-22T16:48:37;30.10;41.70
25102;DHT22;13087;51.472;5.464;2022-07-22T16:51:02;30.00;41.60
25102;DHT22;13087;51.472;5.464;2022-07-22T16:53:27;30.00;41.90
25102;DHT22;13087;51.472;5.464;2022-07-22T16:55:53;30.00;42.10
25102;DHT22;13087;51.472;5.464;2022-07-22T16:58:18;29.90;42.10
25102;DHT22;13087;51.472;5.464;2022-07-22T17:00:44;29.90;42.00
25102;DHT22;13087;51.472;5.464;2022-07-22T17:03:10;29.80;42.10
25102;DHT22;13087;51.472;5.464;2022-07-22T17:05:35;29.80;41.90
25102;DHT22;13087;51.472;5.464;2022-07-22T17:08:01;29.80;42.00
25102;DHT22;13087;51.472;5.464;2022-07-22T17:10:27;29.70;42.00
25102;DHT22;13087;51.472;5.464;2022-07-22T17:12:52;29.70;41.30
25102;DHT22;13087;51.472;5.464;2022-07-22T17:15:18;29.60;41.60
25102;DHT22;13087;51.472;5.464;2022-07-22T17:17:43;29.50;41.80
25102;DHT22;13087;51.472;5.464;2022-07-22T17:20:09;29.50;42.00
25102;DHT22;13087;51.472;5.464;2022-07-22T17:22:35;29.40;42.10
25102;DHT22;13087;51.472;5.464;2022-07-22T17:25:03;29.40;42.10
25102;DHT22;13087;51.472;5.464;2022-07-22T17:27:28;29.30;42.20
25102;DHT22;13087;51.472;5.464;2022-07-22T17:29:58;29.30;42.20
25102;DHT22;13087;51.472;5.464;2022-07-22T17:32:23;29.20;41.50
25102;DHT22;13087;51.472;5.464;2022-07-22T17:34:49;29.00;41.70
25102;DHT22;13087;51.472;5.464;2022-07-22T17:37:15;28.90;41.40
25102;DHT22;13087;51.472;5.464;2022-07-22T17:39:40;28.80;41.20
25102;DHT22;13087;51.472;5.464;2022-07-22T17:54:17;28.60;41.40
25102;DHT22;13087;51.472;5.464;2022-07-22T18:04:00;28.10;42.20
25102;DHT22;13087;51.472;5.464;2022-07-22T18:06:25;27.90;42.90
25102;DHT22;13087;51.472;5.464;2022-07-22T18:08:51;27.90;43.10
25102;DHT22;13087;51.472;5.464;2022-07-22T18:11:17;27.90;43.00
25102;DHT22;13087;51.472;5.464;2022-07-22T18:13:42;27.90;43.00
25102;DHT22;13087;51.472;5.464;2022-07-22T18:16:08;27.90;43.00
25102;DHT22;13087;51.472;5.464;2022-07-22T18:18:34;27.90;43.10
25102;DHT22;13087;51.472;5.464;2022-07-22T18:20:59;27.80;43.20
25102;DHT22;13087;51.472;5.464;2022-07-22T19:07:12;27.80;43.30
25102;DHT22;13087;51.472;5.464;2022-07-22T19:09:42;27.20;44.10
25102;DHT22;13087;51.472;5.464;2022-07-22T19:12:07;27.20;44.20
25102;DHT22;13087;51.472;5.464;2022-07-22T19:14:33;27.20;44.20
25102;DHT22;13087;51.472;5.464;2022-07-22T20:20:18;27.20;44.20
25102;DHT22;13087;51.472;5.464;2022-07-22T20:25:09;26.10;45.40
25102;DHT22;13087;51.472;5.464;2022-07-22T20:39:44;26.00;46.00
25102;DHT22;13087;51.472;5.464;2022-07-22T20:42:10;25.70;46.60
25102;DHT22;13087;51.472;5.464;2022-07-22T20:44:36;25.70;46.60
25102;DHT22;13087;51.472;5.464;2022-07-22T20:47:02;25.70;46.70
25102;DHT22;13087;51.472;5.464;2022-07-22T20:49:27;25.70;46.80
25102;DHT22;13087;51.472;5.464;2022-07-22T20:51:52;25.60;46.80
25102;DHT22;13087;51.472;5.464;2022-07-22T20:54:18;25.60;46.80
25102;DHT22;13087;51.472;5.464;2022-07-22T20:56:44;25.60;46.80
25102;DHT22;13087;51.472;5.464;2022-07-22T20:59:09;25.60;46.90
25102;DHT22;13087;51.472;5.464;2022-07-22T21:04:00;25.50;46.90
25102;DHT22;13087;51.472;5.464;2022-07-22T21:57:31;25.50;47.80
